Time;durP1;ratioP1;P1;durP2;ratioP2;P2;SDS_P1;SDS_P2;PMS_P1;PMS_P2;Temp;Humidity;BMP_temperature;BMP_pressure;BME280_temperature;BME280_humidity;BME280_pressure;Samples;Min_cycle;Max_cycle;Signal;HPM_P1;HPM_P2
2021/08/23 00:00:56;;;;;;;2.67;2.47;;;14.50;99.90;;;;;;487165;244;28539;-70
2021/08/23 00:02:58;;;;;;;2.67;2.47;;;14.50;99.90;;;;;;487125;244;28589;-70
2021/08/23 00:04:59;;;;;;;2.70;2.50;;;14.40;99.90;;;;;;487150;244;28828;-71
2021/08/23 00:07:00;;;;;;;2.83;2.50;;;14.40;99.90;;;;;;487149;244;28410;-71
2021/08/23 00:09:01;;;;;;;2.23;2.10;;;14.50;99.90;;;;;;487151;244;28797;-71
2021/08/23 00:11:03;;;;;;;2.67;2.43;;;14.50;99.90;;;;;;487133;244;29485;-70
2021/08/23 00:13:04;;;;;;;2.77;2.23;;;14.50;99.90;;;;;;487167;244;28775;-70
2021/08/23 00:15:05;;;;;;;3.83;2.90;;;14.50;99.90;;;;;;487136;244;28940;-70
2021/08/23 00:17:06;;;;;;;3.03;2.73;;;14.40;99.90;;;;;;487142;244;28285;-70
2021/08/23 00:19:08;;;;;;;3.13;2.70;;;14.50;99.90;;;;;;487135;244;28236;-70
2021/08/23 00:21:12;;;;;;;4.50;2.60;;;14.50;99.90;;;;;;487141;244;28741;-70
2021/08/23 00:23:16;;;;;;;2.73;2.33;;;14.50;99.90;;;;;;487129;244;28920;-70
2021/08/23 00:25:14;;;;;;;3.93;2.67;;;14.60;99.90;;;;;;486924;244;28863;-71
2021/08/23 00:27:16;;;;;;;3.70;2.53;;;14.50;99.90;;;;;;487133;244;28930;-70
2021/08/23 00:29:17;;;;;;;3.27;2.67;;;14.60;99.90;;;;;;487162;244;28336;-70
2021/08/23 00:31:18;;;;;;;3.93;2.93;;;14.60;99.90;;;;;;487121;244;28530;-70
2021/08/23 00:33:19;;;;;;;4.27;2.90;;;14.60;99.90;;;;;;487127;244;28438;-70
2021/08/23 00:35:21;;;;;;;3.27;2.97;;;14.70;99.90;;;;;;487096;244;28299;-70
2021/08/23 00:37:22;;;;;;;3.20;2.90;;;14.70;99.90;;;;;;487130;244;28575;-70
2021/08/23 00:39:23;;;;;;;2.60;2.23;;;14.70;99.90;;;;;;487181;244;28401;-70
2021/08/23 00:41:24;;;;;;;3.03;2.60;;;14.80;99.90;;;;;;487158;244;28415;-70
2021/08/23 00:43:26;;;;;;;2.53;2.33;;;14.80;99.90;;;;;;487136;244;28872;-70
2021/08/23 00:45:27;;;;;;;2.40;2.20;;;14.80;99.90;;;;;;487125;244;29170;-70
2021/08/23 00:47:28;;;;;;;2.50;2.30;;;14.80;99.90;;;;;;487126;244;29429;-70
2021/08/23 00:49:29;;;;;;;3.00;2.50;;;14.80;99.90;;;;;;487142;244;29329;-70
2021/08/23 00:51:31;;;;;;;2.47;2.27;;;14.80;99.90;;;;;;487153;244;28874;-70
2021/08/23 00:53:32;;;;;;;2.23;2.13;;;14.80;99.90;;;;;;487148;244;28501;-70
2021/08/23 00:55:33;;;;;;;2.80;2.60;;;14.80;99.90;;;;;;487134;244;28819;-70
2021/08/23 00:57:34;;;;;;;2.70;2.50;;;14.90;99.90;;;;;;487143;244;28532;-70
2021/08/23 00:59:36;;;;;;;7.53;2.40;;;14.90;99.90;;;;;;487139;244;28506;-70
2021/08/23 01:01:37;;;;;;;2.30;2.20;;;14.90;99.90;;;;;;487145;244;28410;-70
2021/08/23 01:03:38;;;;;;;2.43;2.23;;;14.90;99.90;;;;;;487137;244;28779;-69
2021/08/23 01:05:39;;;;;;;2.70;2.50;;;14.90;99.90;;;;;;487142;244;28393;-70
2021/08/23 01:07:41;;;;;;;2.40;2.20;;;14.80;99.90;;;;;;487146;244;28522;-70
2021/08/23 01:09:42;;;;;;;2.50;2.30;;;14.90;99.90;;;;;;487142;244;28540;-70
2021/08/23 01:11:43;;;;;;;2.50;2.30;;;14.90;99.90;;;;;;487130;244;28639;-71
2021/08/23 01:13:44;;;;;;;3.30;2.50;;;14.90;99.90;;;;;;487134;244;29227;-70
2021/08/23 01:15:48;;;;;;;3.30;2.33;;;;;;;;;;487127;244;28976;-72
2021/08/23 01:17:49;;;;;;;2.53;2.30;;;14.90;99.90;;;;;;487163;244;26259;-72
2021/08/23 01:19:51;;;;;;;3.00;2.70;;;14.90;99.90;;;;;;487177;244;28953;-70
2021/08/23 01:21:52;;;;;;;2.57;2.37;;;14.90;99.90;;;;;;487156;244;30018;-71
2021/08/23 01:23:53;;;;;;;2.63;2.10;;;14.80;99.90;;;;;;487159;244;28884;-71
2021/08/23 01:25:54;;;;;;;4.33;2.63;;;14.80;99.90;;;;;;487157;244;29044;-70
2021/08/23 01:27:56;;;;;;;2.60;2.40;;;14.80;99.90;;;;;;487172;244;28815;-70
2021/08/23 01:29:57;;;;;;;5.23;2.57;;;14.80;99.90;;;;;;487143;244;28848;-71
2021/08/23 01:31:58;;;;;;;2.93;2.70;;;14.80;99.90;;;;;;487095;244;28757;-71
2021/08/23 01:33:59;;;;;;;2.60;2.40;;;14.80;99.90;;;;;;487148;244;28701;-70
2021/08/23 01:36:01;;;;;;;3.00;2.10;;;14.80;99.90;;;;;;487158;244;28764;-69
2021/08/23 01:38:02;;;;;;;2.50;2.30;;;14.80;99.90;;;;;;487129;244;28259;-71
2021/08/23 01:40:03;;;;;;;4.00;2.23;;;14.80;99.90;;;;;;487154;244;28458;-71
2021/08/23 01:42:04;;;;;;;3.30;2.40;;;14.80;99.90;;;;;;487178;244;28227;-71
2021/08/23 01:44:06;;;;;;;2.93;2.40;;;14.80;99.90;;;;;;487182;244;28293;-71
2021/08/23 01:46:07;;;;;;;4.20;2.40;;;14.80;99.90;;;;;;487155;244;28992;-70
2021/08/23 01:48:08;;;;;;;2.60;2.33;;;14.80;99.90;;;;;;487150;244;29309;-71
2021/08/23 01:50:09;;;;;;;3.20;2.90;;;14.80;99.90;;;;;;487158;244;29325;-70
2021/08/23 01:52:11;;;;;;;2.63;2.43;;;14.70;99.90;;;;;;487167;244;28354;-70
2021/08/23 01:54:12;;;;;;;3.00;2.80;;;14.70;99.90;;;;;;487151;244;28708;-70
2021/08/23 01:56:13;;;;;;;2.70;2.50;;;14.70;99.90;;;;;;487172;244;28571;-70
2021/08/23 01:58:14;;;;;;;2.43;2.23;;;14.70;99.90;;;;;;487147;244;28364;-70
2021/08/23 02:00:16;;;;;;;3.17;2.80;;;14.70;99.90;;;;;;487150;244;28539;-70
2021/08/23 02:02:17;;;;;;;3.10;2.80;;;14.70;99.90;;;;;;487164;244;28144;-70
2021/08/23 02:04:18;;;;;;;3.50;2.80;;;14.70;99.90;;;;;;487164;244;28879;-70
2021/08/23 02:06:19;;;;;;;2.60;2.40;;;14.70;99.90;;;;;;487156;244;28422;-70
2021/08/23 02:08:21;;;;;;;2.90;2.70;;;14.70;99.90;;;;;;487148;244;28348;-70
2021/08/23 02:10:22;;;;;;;3.37;2.33;;;14.70;99.90;;;;;;487157;244;29284;-70
2021/08/23 02:12:23;;;;;;;2.60;2.40;;;14.70;99.90;;;;;;487142;244;29323;-70
2021/08/23 02:14:24;;;;;;;2.90;2.70;;;14.80;99.90;;;;;;487136;244;28855;-70
2021/08/23 02:16:26;;;;;;;2.40;2.20;;;14.80;99.90;;;;;;487138;244;28339;-70
2021/08/23 02:18:27;;;;;;;2.87;2.67;;;14.80;99.90;;;;;;487147;244;28493;-71
2021/08/23 02:20:28;;;;;;;4.83;2.33;;;14.80;99.90;;;;;;487172;244;28531;-70
2021/08/23 02:22:29;;;;;;;3.30;3.00;;;14.80;99.90;;;;;;487164;244;28794;-70
2021/08/23 02:24:33;;;;;;;2.73;2.50;;;14.80;99.90;;;;;;487131;244;29069;-70
2021/08/23 02:26:32;;;;;;;2.70;2.50;;;14.80;99.90;;;;;;486995;244;28740;-69
2021/08/23 02:28:33;;;;;;;2.80;2.60;;;14.80;99.90;;;;;;487162;244;28466;-70
2021/08/23 02:30:34;;;;;;;2.40;2.30;;;14.80;99.90;;;;;;487134;244;28851;-72
2021/08/23 02:32:36;;;;;;;2.97;2.73;;;14.80;99.90;;;;;;487148;244;28344;-70
2021/08/23 02:34:37;;;;;;;3.20;2.90;;;14.90;99.90;;;;;;487009;244;28415;-70
2021/08/23 02:36:38;;;;;;;3.00;2.60;;;14.90;99.90;;;;;;487146;244;28125;-70
2021/08/23 02:38:39;;;;;;;3.13;2.83;;;14.80;99.90;;;;;;487175;244;28489;-72
2021/08/23 02:40:41;;;;;;;2.57;2.37;;;14.90;99.90;;;;;;487125;244;28382;-69
2021/08/23 02:42:42;;;;;;;3.00;2.40;;;14.90;99.90;;;;;;487140;244;28476;-71
2021/08/23 02:44:43;;;;;;;2.80;2.60;;;14.90;99.90;;;;;;487126;244;29767;-72
2021/08/23 02:46:44;;;;;;;2.70;2.50;;;14.90;99.90;;;;;;487148;244;29175;-69
2021/08/23 02:48:46;;;;;;;2.40;2.30;;;14.90;99.90;;;;;;487173;244;29296;-71
2021/08/23 02:50:47;;;;;;;3.07;2.77;;;14.90;99.90;;;;;;487144;244;29272;-69
2021/08/23 02:52:48;;;;;;;3.10;2.80;;;14.90;99.90;;;;;;487165;244;28439;-70
2021/08/23 02:54:49;;;;;;;3.10;2.73;;;14.90;99.90;;;;;;487133;244;28925;-72
2021/08/23 02:56:51;;;;;;;3.77;2.43;;;14.90;99.90;;;;;;487146;244;28883;-72
2021/08/23 02:58:52;;;;;;;2.83;2.63;;;14.90;99.90;;;;;;487150;244;28806;-70
2021/08/23 03:00:53;;;;;;;3.60;2.63;;;14.90;99.90;;;;;;487133;244;28416;-70
2021/08/23 03:02:55;;;;;;;2.90;2.47;;;14.90;99.90;;;;;;487148;244;28748;-72
2021/08/23 03:04:56;;;;;;;2.93;2.70;;;14.80;99.90;;;;;;487158;244;28785;-70
2021/08/23 03:06:57;;;;;;;2.57;2.37;;;14.80;99.90;;;;;;487160;244;28712;-71
2021/08/23 03:08:58;;;;;;;2.87;2.33;;;14.80;99.90;;;;;;487137;244;28903;-72
2021/08/23 03:11:00;;;;;;;2.40;2.20;;;14.80;99.90;;;;;;487158;244;28909;-72
2021/08/23 03:13:01;;;;;;;2.70;2.50;;;14.90;99.90;;;;;;487138;244;29264;-69
2021/08/23 03:15:02;;;;;;;3.30;2.50;;;14.90;99.90;;;;;;487118;244;29310;-70
2021/08/23 03:17:03;;;;;;;4.20;2.60;;;14.80;99.90;;;;;;487149;244;28712;-70
2021/08/23 03:19:05;;;;;;;2.13;2.03;;;14.80;99.90;;;;;;487140;244;28744;-71
2021/08/23 03:21:06;;;;;;;2.70;2.47;;;14.80;99.90;;;;;;487162;244;28731;-71
2021/08/23 03:23:07;;;;;;;4.13;2.80;;;14.80;99.90;;;;;;487151;244;28779;-70
2021/08/23 03:25:08;;;;;;;2.97;2.73;;;14.80;99.90;;;;;;487163;244;28752;-70
2021/08/23 03:27:10;;;;;;;2.50;2.30;;;14.80;99.90;;;;;;487171;244;28713;-70
2021/08/23 03:29:12;;;;;;;2.60;2.40;;;14.80;99.90;;;;;;487126;244;28745;-70
2021/08/23 03:31:12;;;;;;;3.53;3.23;;;14.70;99.90;;;;;;487084;244;28694;-69
2021/08/23 03:33:13;;;;;;;2.50;2.30;;;14.70;99.90;;;;;;487173;244;28709;-72
2021/08/23 03:35:15;;;;;;;2.67;2.47;;;14.70;99.90;;;;;;487181;244;28933;-71
2021/08/23 03:37:16;;;;;;;2.80;2.60;;;14.70;99.90;;;;;;487189;244;29259;-71
2021/08/23 03:39:17;;;;;;;6.37;2.93;;;14.70;99.90;;;;;;487160;244;29562;-72
2021/08/23 03:41:18;;;;;;;2.63;2.43;;;14.70;99.90;;;;;;487176;244;28426;-71
2021/08/23 03:43:20;;;;;;;3.53;2.57;;;14.70;99.90;;;;;;487161;244;28296;-72
2021/08/23 03:45:21;;;;;;;2.87;2.53;;;14.70;99.90;;;;;;487179;244;28327;-71
2021/08/23 03:47:23;;;;;;;2.10;2.00;;;14.70;99.90;;;;;;487154;244;28867;-71
2021/08/23 03:49:23;;;;;;;4.43;3.27;;;14.70;99.90;;;;;;487134;244;28762;-71
2021/08/23 03:51:25;;;;;;;2.80;2.23;;;14.70;99.90;;;;;;487164;244;28607;-71
2021/08/23 03:53:26;;;;;;;3.20;2.60;;;14.70;99.90;;;;;;487131;244;28764;-71
2021/08/23 03:55:27;;;;;;;4.33;2.73;;;14.70;99.90;;;;;;487147;244;28551;-71
2021/08/23 03:57:32;;;;;;;2.30;2.20;;;14.70;99.90;;;;;;487113;244;28569;-71
2021/08/23 03:59:30;;;;;;;3.20;2.53;;;14.70;99.90;;;;;;486806;244;29011;-71
2021/08/23 04:01:31;;;;;;;3.70;2.60;;;14.70;99.90;;;;;;487175;244;29316;-71
2021/08/23 04:03:32;;;;;;;3.70;2.63;;;14.70;99.90;;;;;;487143;244;29179;-71
2021/08/23 04:05:33;;;;;;;3.30;3.00;;;14.70;99.90;;;;;;487138;244;28447;-71
2021/08/23 04:07:35;;;;;;;2.97;2.23;;;14.80;99.90;;;;;;487155;244;28369;-70
2021/08/23 04:09:36;;;;;;;2.73;2.53;;;14.80;99.90;;;;;;487132;244;28800;-71
2021/08/23 04:11:37;;;;;;;2.77;2.47;;;14.80;99.90;;;;;;487166;244;28752;-69
2021/08/23 04:13:39;;;;;;;3.90;2.60;;;14.70;99.90;;;;;;487122;244;28598;-69
2021/08/23 04:15:40;;;;;;;2.70;2.50;;;14.70;99.90;;;;;;487118;244;28269;-70
2021/08/23 04:17:41;;;;;;;2.67;2.47;;;14.70;99.90;;;;;;487145;244;28747;-69
2021/08/23 04:19:42;;;;;;;2.73;2.37;;;14.70;99.90;;;;;;487136;244;28326;-71
2021/08/23 04:21:43;;;;;;;2.80;2.60;;;14.80;99.90;;;;;;487129;244;28778;-71
2021/08/23 04:23:45;;;;;;;2.80;2.47;;;14.70;99.90;;;;;;487135;244;28895;-70
2021/08/23 04:25:46;;;;;;;3.70;3.00;;;14.80;99.90;;;;;;487140;244;28940;-70
2021/08/23 04:27:47;;;;;;;2.73;2.53;;;14.80;99.90;;;;;;487110;244;29624;-70
2021/08/23 04:29:48;;;;;;;2.90;2.70;;;14.80;99.90;;;;;;487128;244;28535;-70
2021/08/23 04:31:50;;;;;;;2.80;2.60;;;14.80;99.90;;;;;;487088;244;28839;-70
2021/08/23 04:33:51;;;;;;;3.43;2.47;;;14.80;99.90;;;;;;487029;244;28429;-71
2021/08/23 04:35:52;;;;;;;2.53;2.33;;;14.80;99.90;;;;;;487048;244;29630;-69
2021/08/23 04:37:53;;;;;;;2.77;2.57;;;14.80;99.90;;;;;;487092;244;28531;-70
2021/08/23 04:39:55;;;;;;;2.90;2.40;;;14.80;99.90;;;;;;487082;244;28797;-72
2021/08/23 04:41:56;;;;;;;2.80;2.60;;;14.80;99.90;;;;;;487105;244;28439;-71
2021/08/23 04:43:57;;;;;;;2.80;2.60;;;14.80;99.90;;;;;;487085;244;28835;-72
2021/08/23 04:45:58;;;;;;;3.20;2.80;;;14.80;99.90;;;;;;487087;244;28828;-69
2021/08/23 04:48:00;;;;;;;4.03;3.00;;;14.80;99.90;;;;;;487089;244;29377;-69
2021/08/23 04:50:01;;;;;;;2.97;2.47;;;14.80;99.90;;;;;;487113;244;28875;-71
2021/08/23 04:52:02;;;;;;;5.60;2.60;;;14.80;99.90;;;;;;487130;244;28835;-70
2021/08/23 04:54:03;;;;;;;3.90;2.80;;;14.80;99.90;;;;;;487123;244;28859;-71
2021/08/23 04:56:05;;;;;;;4.17;2.60;;;14.80;99.90;;;;;;487098;244;28460;-70
2021/08/23 04:58:06;;;;;;;3.00;2.80;;;14.80;99.90;;;;;;487134;244;28721;-71
2021/08/23 05:00:07;;;;;;;2.60;2.40;;;14.80;99.90;;;;;;487146;244;28429;-72
2021/08/23 05:02:08;;;;;;;3.00;2.80;;;14.80;99.90;;;;;;487150;244;28530;-71
2021/08/23 05:04:10;;;;;;;3.43;3.07;;;14.80;99.90;;;;;;487160;244;28406;-70
2021/08/23 05:06:11;;;;;;;2.80;2.60;;;14.80;99.90;;;;;;487168;244;28740;-72
2021/08/23 05:08:12;;;;;;;3.23;2.93;;;14.80;99.90;;;;;;487177;244;28895;-72
2021/08/23 05:10:13;;;;;;;3.47;2.87;;;14.80;99.90;;;;;;487155;244;28816;-69
2021/08/23 05:12:15;;;;;;;3.30;3.10;;;14.80;99.90;;;;;;487160;244;29247;-70
2021/08/23 05:14:16;;;;;;;2.90;2.70;;;14.90;99.90;;;;;;487190;244;28760;-69
2021/08/23 05:16:17;;;;;;;4.20;3.30;;;14.90;99.90;;;;;;487171;244;29037;-69
2021/08/23 05:18:18;;;;;;;2.67;2.47;;;14.90;99.90;;;;;;487141;244;29632;-69
2021/08/23 05:20:20;;;;;;;4.03;3.33;;;14.90;99.90;;;;;;487179;244;28409;-69
2021/08/23 05:22:21;;;;;;;2.90;2.70;;;14.90;99.90;;;;;;487172;244;28757;-72
2021/08/23 05:24:22;;;;;;;3.13;2.87;;;14.90;99.90;;;;;;487163;244;28796;-72
2021/08/23 05:26:23;;;;;;;3.43;3.13;;;14.80;99.90;;;;;;487102;244;28753;-70
2021/08/23 05:28:26;;;;;;;3.60;3.30;;;14.90;99.90;;;;;;487092;244;28733;-69
2021/08/23 05:30:26;;;;;;;4.30;3.60;;;14.90;99.90;;;;;;487116;244;28495;-69
2021/08/23 05:32:27;;;;;;;3.43;3.10;;;14.90;99.90;;;;;;487179;244;28742;-69
2021/08/23 05:34:28;;;;;;;3.40;3.10;;;14.90;99.90;;;;;;487139;244;28765;-71
2021/08/23 05:36:30;;;;;;;4.23;3.80;;;14.90;99.90;;;;;;487159;244;28891;-69
2021/08/23 05:38:31;;;;;;;3.60;3.13;;;14.90;99.90;;;;;;487180;244;29280;-70
2021/08/23 05:40:34;;;;;;;3.17;2.97;;;14.90;99.90;;;;;;487143;244;29297;-70
2021/08/23 05:42:33;;;;;;;4.13;3.77;;;14.90;99.90;;;;;;487072;244;29235;-71
2021/08/23 05:44:35;;;;;;;3.73;3.10;;;14.90;99.90;;;;;;487166;244;28794;-69
2021/08/23 05:46:36;;;;;;;3.97;3.67;;;14.90;99.90;;;;;;487161;244;28947;-69
2021/08/23 05:48:37;;;;;;;4.10;3.67;;;14.90;99.90;;;;;;487150;244;28730;-70
2021/08/23 05:50:38;;;;;;;4.43;4.03;;;14.90;99.90;;;;;;487171;244;28749;-70
2021/08/23 05:52:40;;;;;;;3.70;3.40;;;14.90;99.90;;;;;;487162;244;28757;-70
2021/08/23 05:54:41;;;;;;;4.63;3.40;;;15.00;99.90;;;;;;487131;244;28483;-70
2021/08/23 05:56:42;;;;;;;3.87;3.57;;;15.00;99.90;;;;;;487157;244;28761;-70
2021/08/23 05:58:43;;;;;;;3.40;3.20;;;15.00;99.90;;;;;;487154;244;29130;-70
2021/08/23 06:00:45;;;;;;;3.63;3.33;;;15.10;99.90;;;;;;487154;244;28710;-71
2021/08/23 06:02:46;;;;;;;3.73;3.43;;;15.10;99.90;;;;;;487160;244;29228;-71
2021/08/23 06:04:47;;;;;;;4.10;3.73;;;15.10;99.90;;;;;;487122;244;29176;-72
2021/08/23 06:06:48;;;;;;;3.83;3.50;;;15.20;99.90;;;;;;487174;244;28927;-69
2021/08/23 06:08:50;;;;;;;4.77;4.37;;;15.20;99.90;;;;;;487143;244;28824;-70
2021/08/23 06:10:51;;;;;;;4.10;3.70;;;15.30;99.90;;;;;;487155;244;28764;-70
2021/08/23 06:12:52;;;;;;;4.30;4.00;;;15.20;99.90;;;;;;487177;244;28749;-71
2021/08/23 06:14:53;;;;;;;4.70;4.30;;;15.30;99.90;;;;;;487162;244;28800;-72
2021/08/23 06:16:55;;;;;;;5.43;3.87;;;15.30;99.90;;;;;;487158;244;28758;-69
2021/08/23 06:18:56;;;;;;;4.53;3.70;;;15.30;99.90;;;;;;487155;244;28737;-71
2021/08/23 06:21:00;;;;;;;4.23;3.90;;;15.30;99.90;;;;;;487165;244;28718;-71
2021/08/23 06:22:58;;;;;;;4.90;4.40;;;15.20;99.90;;;;;;486896;244;28761;-72
2021/08/23 06:25:00;;;;;;;4.67;4.20;;;15.20;99.90;;;;;;487133;244;28889;-72
2021/08/23 06:27:01;;;;;;;5.67;4.33;;;15.30;99.90;;;;;;487177;244;29221;-70
2021/08/23 06:29:02;;;;;;;5.43;4.60;;;15.30;99.90;;;;;;487172;244;29312;-71
2021/08/23 06:31:03;;;;;;;5.67;4.70;;;15.30;99.90;;;;;;487202;244;29168;-72
2021/08/23 06:33:05;;;;;;;5.67;4.67;;;15.20;99.90;;;;;;487179;244;28779;-71
2021/08/23 06:35:06;;;;;;;6.20;5.53;;;15.30;99.90;;;;;;487168;244;28828;-71
2021/08/23 06:37:07;;;;;;;5.23;4.50;;;15.30;99.90;;;;;;487174;244;28754;-71
2021/08/23 06:39:08;;;;;;;5.33;4.83;;;15.40;99.90;;;;;;487145;244;28756;-71
2021/08/23 06:41:10;;;;;;;5.80;4.93;;;15.40;99.90;;;;;;487152;244;28709;-71
2021/08/23 06:43:11;;;;;;;5.97;5.37;;;15.40;99.90;;;;;;487163;244;28911;-72
2021/08/23 06:45:12;;;;;;;5.80;5.20;;;15.40;99.90;;;;;;487136;244;28802;-71
2021/08/23 06:47:13;;;;;;;5.40;4.90;;;15.50;99.90;;;;;;487153;244;28941;-71
2021/08/23 06:49:15;;;;;;;7.10;5.47;;;15.50;99.90;;;;;;487152;244;28737;-71
2021/08/23 06:51:20;;;;;;;5.40;4.90;;;15.50;99.90;;;;;;487089;244;29255;-71
2021/08/23 06:53:17;;;;;;;6.17;5.27;;;15.60;99.90;;;;;;486689;244;29349;-70
2021/08/23 06:55:18;;;;;;;6.47;5.00;;;15.80;99.90;;;;;;487138;244;29206;-72
2021/08/23 06:57:20;;;;;;;5.53;5.00;;;15.80;99.90;;;;;;487121;244;28821;-72
2021/08/23 06:59:21;;;;;;;4.87;4.47;;;15.90;99.90;;;;;;487153;244;28868;-71
2021/08/23 07:01:26;;;;;;;5.70;4.47;;;16.00;99.90;;;;;;487162;244;28713;-70
2021/08/23 07:03:23;;;;;;;4.87;4.40;;;16.20;99.90;;;;;;486840;244;28768;-69
2021/08/23 07:05:25;;;;;;;4.93;4.37;;;16.40;99.90;;;;;;487147;244;28709;-69
2021/08/23 07:07:28;;;;;;;4.77;4.37;;;16.50;99.90;;;;;;487141;244;28799;-69
2021/08/23 07:09:27;;;;;;;3.93;3.63;;;16.50;99.90;;;;;;486960;244;29045;-70
2021/08/23 07:11:28;;;;;;;3.80;3.50;;;16.60;99.90;;;;;;487152;244;28876;-70
2021/08/23 07:13:30;;;;;;;4.60;4.20;;;16.70;99.90;;;;;;487145;244;28846;-70
2021/08/23 07:15:31;;;;;;;6.13;3.80;;;16.70;99.90;;;;;;487108;244;29271;-70
2021/08/23 07:17:32;;;;;;;4.00;3.70;;;16.90;99.90;;;;;;487141;244;29185;-71
2021/08/23 07:19:34;;;;;;;3.40;3.10;;;17.00;99.90;;;;;;487154;244;29274;-71
2021/08/23 07:21:35;;;;;;;4.93;3.63;;;17.00;99.90;;;;;;487153;244;29234;-72
2021/08/23 07:23:36;;;;;;;3.57;3.27;;;17.10;99.90;;;;;;487125;244;28924;-71
2021/08/23 07:25:37;;;;;;;3.70;3.40;;;17.10;99.90;;;;;;487133;244;28722;-72
2021/08/23 07:27:38;;;;;;;4.03;3.63;;;17.00;99.90;;;;;;487138;244;28836;-71
2021/08/23 07:29:40;;;;;;;3.33;3.13;;;16.90;99.90;;;;;;487136;244;29292;-71
2021/08/23 07:31:41;;;;;;;3.63;3.33;;;16.90;99.90;;;;;;487156;244;28713;-71
2021/08/23 07:33:42;;;;;;;3.67;3.07;;;16.80;99.90;;;;;;487063;244;28757;-72
2021/08/23 07:35:44;;;;;;;3.33;3.03;;;16.80;99.90;;;;;;487127;244;28721;-71
2021/08/23 07:37:45;;;;;;;3.37;3.17;;;16.90;99.90;;;;;;487110;244;28741;-71
2021/08/23 07:39:46;;;;;;;3.67;3.17;;;17.00;99.90;;;;;;487138;244;29538;-71
2021/08/23 07:41:48;;;;;;;4.27;3.40;;;17.10;99.90;;;;;;487157;244;29160;-71
2021/08/23 07:43:49;;;;;;;3.77;3.40;;;17.10;99.90;;;;;;487150;244;29655;-71
2021/08/23 07:45:50;;;;;;;3.70;3.40;;;17.20;99.90;;;;;;487158;244;29291;-71
2021/08/23 07:47:51;;;;;;;3.83;3.53;;;17.20;99.90;;;;;;487175;244;28817;-70
2021/08/23 07:49:52;;;;;;;3.97;3.57;;;17.10;99.90;;;;;;487158;244;28777;-72
2021/08/23 07:51:54;;;;;;;3.93;3.63;;;17.00;99.90;;;;;;487154;244;28849;-72
2021/08/23 07:53:55;;;;;;;3.67;3.30;;;17.00;99.90;;;;;;487147;244;28865;-72
2021/08/23 07:55:56;;;;;;;3.90;3.60;;;16.90;99.90;;;;;;487139;244;28831;-71
2021/08/23 07:57:57;;;;;;;4.00;3.60;;;16.90;99.90;;;;;;487145;244;28773;-69
2021/08/23 07:59:59;;;;;;;3.97;3.67;;;16.80;99.90;;;;;;487150;244;28782;-69
2021/08/23 08:02:00;;;;;;;4.30;3.90;;;16.70;99.90;;;;;;487157;244;28827;-70
2021/08/23 08:04:01;;;;;;;3.70;3.40;;;16.60;99.90;;;;;;487036;244;29344;-70
2021/08/23 08:06:02;;;;;;;4.20;3.77;;;16.50;99.90;;;;;;487129;244;29254;-69
2021/08/23 08:08:04;;;;;;;4.33;3.77;;;16.30;99.90;;;;;;487133;244;29326;-69
2021/08/23 08:10:05;;;;;;;3.90;3.60;;;16.30;99.90;;;;;;487129;244;29429;-69
2021/08/23 08:12:06;;;;;;;4.17;3.80;;;16.30;99.90;;;;;;487122;244;28710;-72
2021/08/23 08:14:07;;;;;;;4.53;3.67;;;16.40;99.90;;;;;;487161;244;28761;-71
2021/08/23 08:16:09;;;;;;;3.33;3.03;;;16.40;99.90;;;;;;487131;244;28776;-71
2021/08/23 08:18:10;;;;;;;4.23;3.77;;;16.40;99.90;;;;;;487128;244;28847;-72
2021/08/23 08:20:11;;;;;;;4.07;3.77;;;16.10;99.90;;;;;;487134;244;28840;-70
2021/08/23 08:22:13;;;;;;;4.17;3.77;;;16.20;99.90;;;;;;487140;244;28786;-71
2021/08/23 08:24:14;;;;;;;3.83;3.50;;;16.20;99.90;;;;;;487117;244;28737;-71
2021/08/23 08:26:15;;;;;;;5.90;4.67;;;16.20;99.90;;;;;;487153;244;28715;-71
2021/08/23 08:28:16;;;;;;;4.90;4.20;;;16.30;99.90;;;;;;487156;244;29224;-71
2021/08/23 08:30:17;;;;;;;4.00;3.70;;;16.20;99.90;;;;;;487143;244;29458;-71
2021/08/23 08:32:20;;;;;;;4.40;4.10;;;16.20;99.90;;;;;;487153;244;29355;-72
2021/08/23 08:34:20;;;;;;;3.63;3.23;;;16.20;99.90;;;;;;487094;244;29302;-71
2021/08/23 08:36:21;;;;;;;4.40;4.00;;;16.20;99.90;;;;;;487111;244;28710;-71
2021/08/23 08:38:22;;;;;;;4.37;3.97;;;16.30;99.90;;;;;;487137;244;28761;-71
2021/08/23 08:40:24;;;;;;;3.83;3.53;;;16.50;99.90;;;;;;487149;244;28751;-71
2021/08/23 08:42:25;;;;;;;3.87;3.57;;;16.50;99.90;;;;;;487157;244;28808;-71
2021/08/23 08:44:28;;;;;;;3.60;3.30;;;16.50;99.90;;;;;;487131;244;28825;-71
2021/08/23 08:46:27;;;;;;;3.40;3.10;;;16.70;99.90;;;;;;487032;244;28785;-71
2021/08/23 08:48:29;;;;;;;3.30;3.00;;;17.00;99.90;;;;;;487141;244;28792;-72
2021/08/23 08:50:31;;;;;;;3.47;3.03;;;17.00;99.90;;;;;;487178;244;28891;-71
2021/08/23 08:52:32;;;;;;;3.27;3.07;;;17.10;99.90;;;;;;487165;244;28769;-72
2021/08/23 08:54:33;;;;;;;3.50;3.20;;;17.20;99.90;;;;;;487175;244;28820;-70
2021/08/23 08:56:35;;;;;;;3.20;3.00;;;17.40;99.90;;;;;;487149;244;29212;-69
2021/08/23 08:58:36;;;;;;;3.17;2.97;;;17.30;99.90;;;;;;487168;244;29231;-72
2021/08/23 09:00:38;;;;;;;3.20;2.90;;;17.40;99.90;;;;;;487170;244;29287;-72
2021/08/23 09:02:38;;;;;;;3.50;3.20;;;17.60;99.90;;;;;;487133;244;28895;-72
2021/08/23 09:04:40;;;;;;;2.97;2.77;;;17.70;99.90;;;;;;487171;244;28790;-69
2021/08/23 09:06:41;;;;;;;3.00;2.80;;;17.80;99.90;;;;;;487153;244;28823;-71
2021/08/23 09:08:42;;;;;;;3.40;3.10;;;17.90;99.90;;;;;;487183;244;28807;-72
2021/08/23 09:10:43;;;;;;;3.60;3.30;;;17.90;99.90;;;;;;487101;244;28817;-72
2021/08/23 09:12:45;;;;;;;3.33;2.90;;;17.90;99.90;;;;;;487157;244;28839;-71
2021/08/23 09:14:46;;;;;;;4.33;3.93;;;17.90;99.90;;;;;;487168;244;28708;-72
2021/08/23 09:16:47;;;;;;;3.63;3.33;;;17.90;99.90;;;;;;487161;244;28714;-71
2021/08/23 09:18:48;;;;;;;3.43;3.13;;;18.00;99.90;;;;;;487156;244;28740;-71
2021/08/23 09:20:50;;;;;;;3.50;3.20;;;18.00;99.90;;;;;;487171;244;29166;-71
2021/08/23 09:22:51;;;;;;;3.07;2.80;;;18.10;99.90;;;;;;487156;244;29350;-71
2021/08/23 09:24:52;;;;;;;3.83;3.50;;;18.10;99.90;;;;;;487152;244;29945;-71
2021/08/23 09:26:53;;;;;;;3.30;3.00;;;17.90;99.90;;;;;;487178;244;29162;-71
2021/08/23 09:28:55;;;;;;;3.37;3.07;;;17.90;99.90;;;;;;487214;244;28736;-71
2021/08/23 09:30:57;;;;;;;2.97;2.77;;;17.80;99.90;;;;;;487203;244;28793;-71
2021/08/23 09:32:59;;;;;;;3.40;3.10;;;17.70;99.90;;;;;;487144;244;28752;-71
2021/08/23 09:34:58;;;;;;;3.10;2.90;;;17.70;99.90;;;;;;487056;244;28751;-71
2021/08/23 09:37:00;;;;;;;3.27;3.00;;;17.70;99.90;;;;;;487181;244;28721;-71
2021/08/23 09:39:01;;;;;;;3.13;2.93;;;17.60;99.90;;;;;;487173;244;28753;-71
2021/08/23 09:41:04;;;;;;;3.53;3.23;;;17.60;99.90;;;;;;487167;244;28903;-71
2021/08/23 09:43:10;;;;;;;3.43;3.13;;;17.50;99.90;;;;;;487054;244;28825;-71
2021/08/23 09:45:05;;;;;;;3.50;3.20;;;17.50;99.90;;;;;;486516;244;30098;-71
2021/08/23 09:47:06;;;;;;;3.17;2.97;;;17.50;99.90;;;;;;487178;244;29157;-70
2021/08/23 09:49:07;;;;;;;3.30;2.67;;;17.60;99.90;;;;;;487150;244;29464;-71
2021/08/23 09:51:08;;;;;;;3.30;3.10;;;17.60;99.90;;;;;;487161;244;29216;-71
2021/08/23 09:53:11;;;;;;;2.97;2.70;;;17.70;99.90;;;;;;487156;244;28849;-71
2021/08/23 09:55:12;;;;;;;3.27;3.07;;;17.80;99.90;;;;;;487094;244;28737;-71
2021/08/23 09:57:12;;;;;;;3.17;2.87;;;18.00;99.90;;;;;;487109;244;28811;-71
2021/08/23 09:59:14;;;;;;;3.30;3.00;;;17.50;99.90;;;;;;487125;244;28744;-71
2021/08/23 10:01:15;;;;;;;3.73;3.43;;;17.40;99.90;;;;;;487173;244;28716;-71
2021/08/23 10:03:16;;;;;;;3.67;3.37;;;17.60;99.90;;;;;;487143;244;28865;-71
2021/08/23 10:05:17;;;;;;;3.60;3.30;;;17.80;99.90;;;;;;487140;244;29213;-71
2021/08/23 10:07:19;;;;;;;3.40;3.13;;;18.20;99.90;;;;;;487187;244;28871;-71
2021/08/23 10:09:20;;;;;;;3.03;2.83;;;18.50;99.90;;;;;;487142;244;29462;-71
2021/08/23 10:11:21;;;;;;;3.17;2.90;;;18.60;99.90;;;;;;487162;244;29310;-71
2021/08/23 10:13:22;;;;;;;3.10;2.90;;;18.70;99.90;;;;;;487143;244;29279;-71
2021/08/23 10:15:24;;;;;;;3.07;2.87;;;18.60;99.90;;;;;;487161;244;29237;-71
2021/08/23 10:17:25;;;;;;;3.20;2.93;;;18.60;99.90;;;;;;487155;244;28808;-71
2021/08/23 10:19:26;;;;;;;3.10;2.80;;;18.60;99.90;;;;;;487149;244;28845;-71
2021/08/23 10:21:27;;;;;;;2.77;2.57;;;18.70;99.90;;;;;;487169;244;28716;-70
2021/08/23 10:23:29;;;;;;;2.60;2.40;;;18.90;99.90;;;;;;487166;244;28736;-71
2021/08/23 10:25:30;;;;;;;2.60;2.50;;;19.00;99.90;;;;;;487127;244;28759;-71
2021/08/23 10:27:31;;;;;;;2.47;2.37;;;19.20;99.90;;;;;;487152;244;28729;-71
2021/08/23 10:29:32;;;;;;;3.10;2.80;;;19.30;99.90;;;;;;487151;244;28751;-71
2021/08/23 10:31:34;;;;;;;2.80;2.60;;;19.30;99.90;;;;;;487157;244;28782;-71